createdAt,value
2022-09-10T00:02:15.196Z,12.90
2022-09-10T00:04:42.126Z,13.02
2022-09-10T00:07:09.918Z,13.60
2022-09-10T00:09:37.582Z,13.82
2022-09-10T00:12:04.858Z,13.40
2022-09-10T00:14:31.801Z,13.32
2022-09-10T00:16:58.738Z,12.73
2022-09-10T00:19:25.706Z,13.07
2022-09-10T00:21:52.646Z,13.60
2022-09-10T00:24:19.813Z,13.40
2022-09-10T00:26:46.747Z,12.93
2022-09-10T00:29:17.049Z,13.30
2022-09-10T00:31:44.941Z,13.20
2022-09-10T00:34:13.146Z,12.85
2022-09-10T00:36:42.085Z,13.20
2022-09-10T00:39:12.459Z,13.27
2022-09-10T00:41:41.146Z,12.75
2022-09-10T00:44:40.060Z,13.20
2022-09-10T00:47:28.166Z,13.40
2022-09-10T00:50:05.645Z,12.93
2022-09-10T00:52:38.917Z,13.00
2022-09-10T00:55:07.729Z,12.77
2022-09-10T00:57:34.755Z,13.95
2022-09-10T01:00:08.233Z,13.77
2022-09-10T01:02:36.107Z,13.75
2022-09-10T01:05:04.730Z,13.98
2022-09-10T01:07:33.813Z,14.50
2022-09-10T01:10:05.153Z,14.80
2022-09-10T01:12:38.517Z,14.73
2022-09-10T01:15:30.862Z,15.60
2022-09-10T01:18:22.173Z,15.70
2022-09-10T01:21:08.269Z,15.45
2022-09-10T01:24:13.471Z,15.75
2022-09-10T01:29:58.674Z,15.90
2022-09-10T01:32:52.075Z,16.02
2022-09-10T01:35:24.077Z,16.40
2022-09-10T01:37:57.614Z,16.23
2022-09-10T01:40:29.915Z,16.67
2022-09-10T01:43:10.743Z,15.93
2022-09-10T01:46:21.614Z,16.35
2022-09-10T01:49:14.412Z,16.10
2022-09-10T01:51:59.806Z,16.55
2022-09-10T01:54:43.237Z,16.50
2022-09-10T01:57:23.284Z,16.08
2022-09-10T02:00:10.780Z,16.20
2022-09-10T02:02:47.998Z,15.90
2022-09-10T02:05:18.134Z,16.45
2022-09-10T02:07:46.981Z,15.90
2022-09-10T02:10:13.951Z,15.80
2022-09-10T02:12:41.126Z,16.02
2022-09-10T02:15:10.618Z,16.10
2022-09-10T02:17:39.922Z,15.90
2022-09-10T02:20:11.013Z,15.63
2022-09-10T02:22:42.562Z,15.50
2022-09-10T02:25:10.006Z,15.52
2022-09-10T02:27:38.388Z,15.38
2022-09-10T02:30:07.146Z,15.20
2022-09-10T02:32:34.393Z,15.35
2022-09-10T02:35:01.285Z,15.20
2022-09-10T02:37:28.405Z,15.50
2022-09-10T02:39:55.556Z,14.90
2022-09-10T02:42:22.810Z,15.43
2022-09-10T02:44:49.862Z,15.35
2022-09-10T02:47:16.806Z,15.38
2022-09-10T02:49:43.761Z,15.32
2022-09-10T02:52:10.679Z,15.45
2022-09-10T02:54:37.615Z,15.25
2022-09-10T02:57:04.815Z,15.68
2022-09-10T02:59:32.816Z,15.35
2022-09-10T03:02:00.052Z,15.10
2022-09-10T03:04:27.033Z,15.15
2022-09-10T03:06:55.021Z,15.73
2022-09-10T03:09:22.757Z,15.48
2022-09-10T03:11:51.345Z,15.40
2022-09-10T03:14:21.110Z,15.50
2022-09-10T03:16:48.302Z,15.70
2022-09-10T03:19:16.432Z,15.75
2022-09-10T03:21:43.672Z,16.13
2022-09-10T03:24:13.435Z,16.05
2022-09-10T03:26:43.912Z,16.35
2022-09-10T03:29:11.177Z,16.15
2022-09-10T03:31:38.281Z,16.20
2022-09-10T03:34:06.288Z,16.40
2022-09-10T03:36:33.193Z,16.17
2022-09-10T03:39:00.209Z,16.02
2022-09-10T03:41:28.574Z,16.95
2022-09-10T03:43:56.210Z,17.20
2022-09-10T03:46:23.365Z,17.38
2022-09-10T03:48:55.122Z,16.92
2022-09-10T03:51:23.352Z,17.65
2022-09-10T03:53:50.294Z,17.45
2022-09-10T03:56:20.134Z,17.20
2022-09-10T03:58:49.330Z,16.92
2022-09-10T04:01:19.714Z,17.00
2022-09-10T04:03:47.473Z,17.23
2022-09-10T04:06:16.366Z,17.38
2022-09-10T04:08:44.182Z,16.95
2022-09-10T04:11:11.150Z,16.85
2022-09-10T04:13:38.089Z,16.58
2022-09-10T04:16:05.199Z,16.83
2022-09-10T04:18:35.262Z,16.65
2022-09-10T04:21:02.237Z,16.35
2022-09-10T04:23:29.550Z,16.52
2022-09-10T04:25:57.203Z,17.00
2022-09-10T04:28:24.321Z,16.67
2022-09-10T04:30:51.562Z,16.67
2022-09-10T04:33:18.861Z,17.13
2022-09-10T04:35:46.118Z,17.27
2022-09-10T04:38:13.027Z,16.77
2022-09-10T04:40:40.030Z,16.88
2022-09-10T04:43:06.949Z,17.23
2022-09-10T04:45:34.884Z,16.77
2022-09-10T04:48:06.294Z,16.92
2022-09-10T04:50:34.063Z,17.38
2022-09-10T04:53:01.289Z,17.38
2022-09-10T04:55:30.219Z,16.88
2022-09-10T04:57:57.166Z,17.48
2022-09-10T05:00:25.158Z,17.50
2022-09-10T05:02:52.738Z,16.55
2022-09-10T05:05:19.630Z,17.45
2022-09-10T05:07:46.582Z,16.33
2022-09-10T05:10:13.586Z,16.05
2022-09-10T05:12:40.482Z,16.92
2022-09-10T05:15:08.439Z,16.20
2022-09-10T05:17:35.427Z,16.13
2022-09-10T05:20:03.931Z,16.52
2022-09-10T05:22:37.182Z,16.50
2022-09-10T05:25:07.733Z,16.45
2022-09-10T05:27:34.663Z,16.27
2022-09-10T05:30:02.270Z,16.25
2022-09-10T05:32:29.705Z,16.10
2022-09-10T05:34:56.766Z,16.00
2022-09-10T05:37:23.796Z,17.08
2022-09-10T05:39:50.807Z,16.83
2022-09-10T05:42:18.776Z,16.65
2022-09-10T05:44:45.718Z,16.70
2022-09-10T05:47:12.613Z,16.40
2022-09-10T05:49:39.518Z,16.65
2022-09-10T05:52:06.552Z,16.58
2022-09-10T05:54:33.582Z,16.65
2022-09-10T05:57:00.746Z,16.98
2022-09-10T05:59:27.847Z,17.20
2022-09-10T06:01:54.859Z,17.00
2022-09-10T06:04:21.915Z,16.55
2022-09-10T06:06:49.830Z,16.83
2022-09-10T06:09:17.237Z,16.45
2022-09-10T06:11:44.194Z,16.15
2022-09-10T06:14:11.168Z,16.58
2022-09-10T06:16:38.317Z,16.38
2022-09-10T06:19:05.270Z,16.35
2022-09-10T06:21:32.795Z,15.85
2022-09-10T06:24:00.125Z,15.93
2022-09-10T06:26:27.249Z,16.63
2022-09-10T06:28:56.842Z,16.50
2022-09-10T06:31:23.923Z,16.50
2022-09-10T06:33:51.094Z,15.77
2022-09-10T06:36:18.041Z,15.77
2022-09-10T06:38:45.245Z,15.27
2022-09-10T06:41:13.881Z,15.95
2022-09-10T06:43:41.801Z,15.00
2022-09-10T06:46:40.831Z,15.05
2022-09-10T06:49:03.426Z,14.70
2022-09-10T06:51:31.247Z,14.85
2022-09-10T06:53:58.208Z,14.98
2022-09-10T06:56:25.254Z,15.20
2022-09-10T06:58:52.286Z,15.52
2022-09-10T07:01:22.913Z,15.55
2022-09-10T07:03:59.214Z,15.38
2022-09-10T07:06:28.191Z,15.20
2022-09-10T07:08:56.990Z,14.95
2022-09-10T07:11:26.185Z,14.73
2022-09-10T07:13:54.004Z,14.65
2022-09-10T07:16:22.493Z,14.55
2022-09-10T07:18:54.712Z,14.60
2022-09-10T07:21:22.961Z,15.13
2022-09-10T07:23:54.773Z,14.82
2022-09-10T07:26:21.678Z,14.98
2022-09-10T07:28:49.137Z,15.75
2022-09-10T07:31:22.906Z,15.25
2022-09-10T07:33:50.561Z,15.82
2022-09-10T07:36:18.804Z,15.27
2022-09-10T07:38:45.946Z,14.45
2022-09-10T07:41:14.229Z,15.07
2022-09-10T07:43:42.906Z,23.15
2022-09-10T07:46:20.680Z,15.73
2022-09-10T07:48:48.785Z,14.40
2022-09-10T07:51:19.331Z,14.70
2022-09-10T07:53:54.615Z,14.50
2022-09-10T07:56:23.360Z,15.30
2022-09-10T07:58:51.374Z,14.50
2022-09-10T08:01:19.814Z,14.45
2022-09-10T08:03:47.174Z,14.55
2022-09-10T08:06:14.759Z,15.05
2022-09-10T08:08:41.837Z,15.05
2022-09-10T08:11:17.550Z,14.93
2022-09-10T08:13:47.012Z,14.70
2022-09-10T08:16:17.347Z,14.52
2022-09-10T08:18:44.498Z,14.80
2022-09-10T08:21:11.813Z,15.18
2022-09-10T08:23:42.043Z,14.85
2022-09-10T08:26:08.998Z,14.80
2022-09-10T08:28:36.941Z,14.88
2022-09-10T08:31:09.812Z,15.10
2022-09-10T08:33:40.651Z,15.15
2022-09-10T08:36:12.238Z,15.05
2022-09-10T08:38:40.621Z,14.70
2022-09-10T08:41:19.346Z,14.55
2022-09-10T08:44:10.137Z,14.60
2022-09-10T08:46:45.533Z,14.40
2022-09-10T08:49:34.126Z,14.48
2022-09-10T08:52:14.690Z,14.38
2022-09-10T08:54:50.150Z,14.10
2022-09-10T08:57:25.615Z,14.27
2022-09-10T08:59:56.443Z,14.00
2022-09-10T09:02:49.345Z,13.75
2022-09-10T09:05:19.726Z,13.98
2022-09-10T09:07:48.504Z,14.02
2022-09-10T09:10:38.732Z,14.07
2022-09-10T09:13:17.986Z,14.38
2022-09-10T09:15:51.888Z,14.23
2022-09-10T09:18:28.199Z,14.35
2022-09-10T09:20:58.352Z,14.20
2022-09-10T09:24:11.628Z,13.95
2022-09-10T09:26:38.227Z,13.80
2022-09-10T09:29:18.186Z,13.98
2022-09-10T09:31:50.173Z,14.90
2022-09-10T09:34:36.561Z,14.00
2022-09-10T09:37:11.102Z,14.55
2022-09-10T09:40:16.402Z,14.55
2022-09-10T09:45:35.507Z,14.38
2022-09-10T09:48:04.997Z,13.98
2022-09-10T09:50:34.523Z,14.75
2022-09-10T09:53:01.459Z,14.40
2022-09-10T09:55:31.013Z,14.07
2022-09-10T09:58:26.999Z,14.70
2022-09-10T10:00:54.097Z,14.77
2022-09-10T10:03:29.109Z,13.95
2022-09-10T10:06:09.797Z,14.43
2022-09-10T10:08:44.387Z,13.80
2022-09-10T10:11:18.714Z,14.73
2022-09-10T10:16:35.794Z,14.90
2022-09-10T10:19:03.271Z,14.73
2022-09-10T10:21:34.952Z,15.00
2022-09-10T10:24:02.085Z,14.52
2022-09-10T10:26:32.246Z,14.60
2022-09-10T10:29:01.356Z,14.52
2022-09-10T10:31:41.383Z,14.52
2022-09-10T10:34:20.636Z,14.23
2022-09-10T10:36:56.409Z,14.50
2022-09-10T10:39:42.050Z,14.30
2022-09-10T10:42:46.868Z,15.10
2022-09-10T10:45:37.226Z,14.60
2022-09-10T10:48:12.477Z,15.20
2022-09-10T10:50:58.717Z,14.98
2022-09-10T10:54:02.851Z,14.80
2022-09-10T10:56:38.941Z,15.02
2022-09-10T10:59:16.589Z,15.25
2022-09-10T11:01:51.304Z,14.85
2022-09-10T11:04:38.777Z,15.20
2022-09-10T11:07:10.313Z,15.27
2022-09-10T11:10:01.229Z,14.95
2022-09-10T11:12:45.764Z,15.05
2022-09-10T11:17:55.805Z,16.60
2022-09-10T11:20:33.498Z,16.33
2022-09-10T11:23:30.453Z,16.55
2022-09-10T11:26:13.557Z,15.15
2022-09-10T11:28:54.610Z,14.93
2022-09-10T11:31:42.932Z,15.45
2022-09-10T11:34:26.001Z,15.38
2022-09-10T11:37:02.034Z,15.77
2022-09-10T11:39:38.307Z,15.20
2022-09-10T11:42:28.011Z,15.60
2022-09-10T11:45:03.066Z,17.25
2022-09-10T11:47:40.391Z,16.75
2022-09-10T11:50:34.300Z,17.08
2022-09-10T11:53:02.556Z,16.60
2022-09-10T11:56:23.649Z,18.02
2022-09-10T11:58:56.138Z,18.50
2022-09-10T12:01:38.247Z,16.25
2022-09-10T12:04:15.078Z,16.35
2022-09-10T12:07:29.046Z,15.88
2022-09-10T12:09:59.363Z,15.00
2022-09-10T12:12:43.157Z,15.45
2022-09-10T12:15:18.770Z,15.52
2022-09-10T12:18:17.114Z,14.85
2022-09-10T12:20:57.183Z,14.77
2022-09-10T12:23:33.925Z,14.82
2022-09-10T12:26:10.054Z,14.68
2022-09-10T12:28:43.200Z,15.10
2022-09-10T12:31:12.830Z,14.95
2022-09-10T12:33:42.604Z,14.52
2022-09-10T12:36:14.370Z,14.85
2022-09-10T12:39:16.547Z,15.02
2022-09-10T12:41:43.507Z,15.10
2022-09-10T12:44:34.474Z,14.65
2022-09-10T12:47:16.860Z,14.88
2022-09-10T12:49:48.019Z,15.63
2022-09-10T12:52:44.994Z,15.77
2022-09-10T12:55:29.090Z,15.25
2022-09-10T12:58:06.394Z,15.82
2022-09-10T13:00:46.713Z,15.15
2022-09-10T13:03:19.965Z,15.20
2022-09-10T13:05:47.752Z,16.00
2022-09-10T13:08:34.112Z,15.45
2022-09-10T13:11:03.014Z,15.60
2022-09-10T13:13:38.901Z,15.35
2022-09-10T13:16:09.905Z,15.60
2022-09-10T13:18:37.748Z,15.57
2022-09-10T13:21:23.113Z,15.07
2022-09-10T13:23:54.927Z,15.40
2022-09-10T13:26:39.974Z,15.75
2022-09-10T13:29:27.119Z,15.40
2022-09-10T13:32:27.822Z,15.32
2022-09-10T13:35:00.489Z,15.20
2022-09-10T13:37:40.362Z,17.55
2022-09-10T13:40:07.341Z,19.30
2022-09-10T13:42:53.081Z,19.13
2022-09-10T13:45:34.080Z,17.88
2022-09-10T13:48:22.193Z,19.63
2022-09-10T13:51:13.061Z,16.92
2022-09-10T13:53:44.045Z,19.10
2022-09-10T13:56:25.724Z,18.95
2022-09-10T13:59:03.705Z,17.60
2022-09-10T14:01:53.396Z,15.13
2022-09-10T14:04:27.921Z,15.65
2022-09-10T14:07:16.154Z,14.90
2022-09-10T14:09:51.819Z,14.95
2022-09-10T14:12:23.558Z,14.85
2022-09-10T14:14:59.270Z,14.77
2022-09-10T14:17:29.017Z,15.27
2022-09-10T14:20:01.588Z,15.35
2022-09-10T14:22:31.380Z,15.20
2022-09-10T14:25:02.739Z,15.23
2022-09-10T14:27:35.049Z,15.40
2022-09-10T14:30:26.661Z,16.00
2022-09-10T14:32:53.794Z,15.60
2022-09-10T14:35:47.246Z,15.32
2022-09-10T14:38:35.959Z,15.05
2022-09-10T14:41:08.806Z,15.13
2022-09-10T14:43:40.655Z,15.07
2022-09-10T14:46:10.199Z,15.27
2022-09-10T14:49:04.472Z,15.13
2022-09-10T14:51:31.446Z,15.18
2022-09-10T14:53:59.264Z,15.02
2022-09-10T14:56:38.710Z,15.23
2022-09-10T14:59:32.259Z,14.80
2022-09-10T15:02:06.239Z,15.15
2022-09-10T15:04:33.177Z,15.27
2022-09-10T15:07:01.074Z,15.13
2022-09-10T15:09:29.424Z,15.15
2022-09-10T15:12:13.522Z,15.50
2022-09-10T15:14:40.429Z,15.30
2022-09-10T15:17:08.221Z,15.57
2022-09-10T15:19:35.225Z,15.50
2022-09-10T15:22:02.134Z,15.82
2022-09-10T15:24:29.136Z,15.27
2022-09-10T15:26:56.567Z,15.15
2022-09-10T15:29:26.230Z,14.93
2022-09-10T15:31:53.266Z,15.20
2022-09-10T15:34:21.257Z,15.52
2022-09-10T15:36:48.405Z,15.90
2022-09-10T15:39:15.611Z,15.70
2022-09-10T15:41:44.573Z,15.23
2022-09-10T15:44:12.190Z,15.27
2022-09-10T15:46:45.390Z,14.82
2022-09-10T15:49:13.875Z,15.13
2022-09-10T15:51:41.488Z,14.65
2022-09-10T15:54:10.773Z,14.95
2022-09-10T15:56:38.154Z,14.90
2022-09-10T15:59:06.034Z,15.00
2022-09-10T16:01:35.179Z,15.57
2022-09-10T16:04:02.991Z,15.82
2022-09-10T16:06:33.055Z,15.88
2022-09-10T16:09:02.347Z,15.25
2022-09-10T16:11:31.416Z,14.82
2022-09-10T16:14:04.292Z,14.88
2022-09-10T16:16:33.234Z,15.15
2022-09-10T16:19:00.892Z,15.13
2022-09-10T16:21:34.974Z,15.43
2022-09-10T16:24:02.571Z,15.43
2022-09-10T16:26:35.397Z,15.43
2022-09-10T16:29:07.027Z,15.43
2022-09-10T16:31:36.524Z,15.13
2022-09-10T16:34:05.961Z,15.40
2022-09-10T16:36:34.833Z,15.57
2022-09-10T16:39:02.310Z,15.40
2022-09-10T16:41:29.809Z,15.52
2022-09-10T16:44:00.684Z,15.00
2022-09-10T16:46:28.538Z,14.80
2022-09-10T16:48:56.421Z,14.88
2022-09-10T16:51:25.446Z,14.93
2022-09-10T16:53:58.099Z,15.02
2022-09-10T16:56:25.941Z,14.90
2022-09-10T16:58:53.179Z,15.10
2022-09-10T17:01:20.998Z,15.32
2022-09-10T17:03:50.017Z,14.88
2022-09-10T17:06:18.483Z,15.18
2022-09-10T17:08:46.023Z,15.07
2022-09-10T17:11:15.052Z,15.05
2022-09-10T17:13:41.990Z,19.40
2022-09-10T17:16:16.936Z,20.48
2022-09-10T17:18:44.906Z,16.63
2022-09-10T17:21:13.358Z,16.83
2022-09-10T17:23:41.478Z,15.00
2022-09-10T17:26:09.465Z,15.05
2022-09-10T17:28:37.225Z,15.82
2022-09-10T17:31:04.754Z,15.60
2022-09-10T17:33:33.675Z,16.20
2022-09-10T17:36:04.404Z,16.95
2022-09-10T17:38:34.111Z,16.95
2022-09-10T17:41:03.440Z,16.60
2022-09-10T17:43:35.461Z,16.55
2022-09-10T17:46:12.012Z,16.73
2022-09-10T17:48:39.345Z,16.52
2022-09-10T17:51:07.214Z,16.20
2022-09-10T17:53:36.175Z,16.00
2022-09-10T17:56:09.614Z,16.23
2022-09-10T17:58:36.780Z,16.23
2022-09-10T18:01:09.754Z,16.05
2022-09-10T18:03:37.179Z,16.65
2022-09-10T18:06:06.569Z,16.25
2022-09-10T18:08:34.243Z,16.25
2022-09-10T18:11:06.876Z,15.95
2022-09-10T18:13:34.999Z,16.10
2022-09-10T18:16:17.005Z,15.98
2022-09-10T18:18:45.711Z,15.52
2022-09-10T18:21:33.370Z,15.52
2022-09-10T18:24:06.646Z,15.25
2022-09-10T18:26:39.622Z,15.40
2022-09-10T18:29:11.026Z,15.25
2022-09-10T18:31:42.765Z,15.38
2022-09-10T18:34:12.913Z,15.10
2022-09-10T18:36:40.002Z,15.23
2022-09-10T18:39:11.265Z,15.07
2022-09-10T18:41:40.314Z,15.15
2022-09-10T18:44:11.641Z,15.20
2022-09-10T18:46:38.956Z,15.23
2022-09-10T18:49:05.901Z,15.40
2022-09-10T18:51:33.151Z,15.40
2022-09-10T18:54:01.471Z,15.55
2022-09-10T18:56:31.506Z,15.43
2022-09-10T18:59:07.151Z,15.48
2022-09-10T19:01:36.402Z,15.05
2022-09-10T19:04:07.401Z,15.15
2022-09-10T19:06:37.802Z,15.40
2022-09-10T19:09:08.988Z,16.42
2022-09-10T19:11:38.535Z,15.25
2022-09-10T19:14:19.391Z,15.57
2022-09-10T19:16:48.146Z,15.27
2022-09-10T19:19:20.755Z,15.43
2022-09-10T19:21:49.758Z,15.38
2022-09-10T19:24:19.348Z,15.18
2022-09-10T19:26:50.012Z,15.82
2022-09-10T19:29:17.347Z,15.98
2022-09-10T19:31:47.107Z,15.88
2022-09-10T19:34:15.879Z,15.70
2022-09-10T19:36:44.377Z,16.67
2022-09-10T19:39:14.085Z,16.08
2022-09-10T19:41:42.927Z,16.33
2022-09-10T19:44:12.682Z,16.38
2022-09-10T19:46:41.508Z,16.75
2022-09-10T19:49:10.293Z,17.00
2022-09-10T19:51:39.177Z,16.88
2022-09-10T19:54:10.157Z,17.00
2022-09-10T19:56:41.332Z,16.35
2022-09-10T19:59:10.179Z,16.27
2022-09-10T20:01:42.158Z,16.35
2022-09-10T20:04:11.035Z,15.80
2022-09-10T20:06:38.975Z,16.33
2022-09-10T20:09:07.525Z,16.45
2022-09-10T20:11:35.309Z,16.05
2022-09-10T20:14:08.268Z,16.20
2022-09-10T20:16:41.825Z,16.30
2022-09-10T20:19:11.150Z,16.30
2022-09-10T20:21:38.159Z,15.82
2022-09-10T20:24:07.670Z,16.50
2022-09-10T20:26:41.294Z,16.10
2022-09-10T20:29:12.417Z,16.17
2022-09-10T20:31:41.353Z,16.23
2022-09-10T20:34:12.206Z,16.05
2022-09-10T20:36:42.358Z,16.67
2022-09-10T20:39:12.217Z,16.42
2022-09-10T20:41:40.206Z,16.08
2022-09-10T20:44:08.031Z,15.82
2022-09-10T20:46:35.200Z,15.95
2022-09-10T20:49:05.090Z,16.02
2022-09-10T20:51:34.975Z,15.70
2022-09-10T20:54:03.468Z,15.95
2022-09-10T20:56:30.460Z,15.60
2022-09-10T20:58:57.702Z,15.93
2022-09-10T21:01:26.696Z,15.70
2022-09-10T21:03:57.980Z,15.63
2022-09-10T21:06:29.490Z,15.30
2022-09-10T21:08:56.942Z,15.05
2022-09-10T21:11:26.479Z,15.02
2022-09-10T21:13:55.656Z,15.77
2022-09-10T21:16:28.515Z,15.55
2022-09-10T21:18:58.094Z,15.45
2022-09-10T21:21:28.392Z,15.10
2022-09-10T21:24:04.699Z,15.05
2022-09-10T21:26:39.463Z,15.63
2022-09-10T21:29:16.102Z,14.85
2022-09-10T21:31:43.567Z,14.85
2022-09-10T21:34:10.535Z,15.20
2022-09-10T21:36:39.493Z,14.82
2022-09-10T21:39:11.408Z,14.70
2022-09-10T21:41:41.576Z,15.13
2022-09-10T21:44:16.146Z,14.60
2022-09-10T21:46:44.526Z,14.82
2022-09-10T21:49:11.997Z,14.65
2022-09-10T21:51:39.658Z,14.80
2022-09-10T21:54:06.746Z,14.32
2022-09-10T21:56:33.924Z,14.13
2022-09-10T21:59:01.389Z,14.27
2022-09-10T22:01:30.489Z,14.50
2022-09-10T22:04:00.778Z,14.05
2022-09-10T22:06:33.126Z,14.30
2022-09-10T22:09:03.189Z,14.05
2022-09-10T22:11:57.218Z,14.20
2022-09-10T22:14:25.146Z,14.50
2022-09-10T22:16:52.937Z,14.02
2022-09-10T22:19:23.143Z,13.82
2022-09-10T22:21:51.025Z,14.60
2022-09-10T22:24:19.072Z,14.23
2022-09-10T22:26:47.407Z,14.10
2022-09-10T22:29:18.031Z,14.02
2022-09-10T22:31:45.310Z,13.80
2022-09-10T22:34:14.642Z,14.05
2022-09-10T22:36:44.080Z,14.13
2022-09-10T22:39:12.442Z,14.25
2022-09-10T22:41:40.270Z,14.50
2022-09-10T22:44:07.851Z,14.57
2022-09-10T22:46:36.536Z,13.98
2022-09-10T22:49:04.339Z,13.73
2022-09-10T22:51:37.029Z,14.07
2022-09-10T22:54:05.446Z,14.40
2022-09-10T22:56:32.774Z,14.13
2022-09-10T22:59:00.112Z,14.48
2022-09-10T23:01:35.643Z,14.48
2022-09-10T23:04:04.152Z,14.25
2022-09-10T23:06:33.561Z,14.50
2022-09-10T23:09:12.153Z,14.32
2022-09-10T23:11:39.597Z,14.73
2022-09-10T23:14:10.366Z,14.40
2022-09-10T23:16:40.101Z,14.80
2022-09-10T23:19:13.014Z,14.25
2022-09-10T23:21:46.609Z,14.38
2022-09-10T23:24:16.830Z,14.77
2022-09-10T23:26:44.543Z,14.82
2022-09-10T23:29:12.478Z,14.88
2022-09-10T23:31:41.064Z,14.90
2022-09-10T23:34:11.446Z,15.07
2022-09-10T23:36:40.803Z,14.70
2022-09-10T23:39:28.055Z,15.00
2022-09-10T23:41:57.120Z,15.25
2022-09-10T23:44:24.789Z,15.63
2022-09-10T23:46:52.136Z,15.30
2022-09-10T23:49:19.128Z,15.40
2022-09-10T23:51:46.243Z,15.15
2022-09-10T23:54:13.382Z,15.23
2022-09-10T23:56:40.809Z,15.43
2022-09-10T23:59:08.443Z,15.68
